Time;durP1;ratioP1;P1;durP2;ratioP2;P2;SDS_P1;SDS_P2;PMS_P1;PMS_P2;Temp;Humidity;BMP_temperature;BMP_pressure;BME280_temperature;BME280_humidity;BME280_pressure;Samples;Min_cycle;Max_cycle;Signal;HPM_P1;HPM_P2
2023/11/01 00:04:00;;;;;;;7.55;1.90;;;;;11.00;99842.00;;;;10335603;28;20229;-73
2023/11/01 00:09:01;;;;;;;5.87;1.70;;;;;11.10;99827.00;;;;10333832;28;20223;-72
2023/11/01 00:14:03;;;;;;;12.03;2.30;;;;;11.10;99823.00;;;;10312910;28;20338;-72
2023/11/01 00:19:05;;;;;;;6.57;1.97;;;;;11.10;99813.00;;;;10317172;28;20313;-72
2023/11/01 00:24:06;;;;;;;7.07;1.92;;;;;11.10;99801.00;;;;10305589;28;20246;-72
2023/11/01 00:29:07;;;;;;;5.87;2.03;;;;;11.10;99798.00;;;;10311503;28;20263;-72
2023/11/01 00:34:09;;;;;;;10.87;3.07;;;;;11.10;99797.00;;;;10314729;28;20227;-72
2023/11/01 00:39:10;;;;;;;7.17;2.83;;;;;11.20;99788.00;;;;10302108;28;20807;-73
2023/11/01 00:44:11;;;;;;;6.03;2.42;;;;;11.20;99775.00;;;;10317443;28;20227;-73
2023/11/01 00:49:12;;;;;;;9.87;2.43;;;;;11.20;99774.00;;;;10333860;28;20220;-73
2023/11/01 00:54:13;;;;;;;6.97;2.20;;;;;11.20;99765.00;;;;10330877;28;20215;-73
2023/11/01 00:59:14;;;;;;;10.33;2.73;;;;;11.20;99765.00;;;;10318482;28;20841;-73
2023/11/01 01:04:15;;;;;;;11.80;3.30;;;;;11.20;99751.00;;;;10332606;28;20228;-73
2023/11/01 01:09:17;;;;;;;8.23;2.35;;;;;11.20;99753.00;;;;10303434;28;20238;-73
2023/11/01 01:14:19;;;;;;;7.53;2.40;;;;;11.20;99760.00;;;;10336746;28;20254;-73
2023/11/01 01:19:22;;;;;;;6.20;2.25;;;;;11.30;99749.00;;;;10316381;28;20228;-73
2023/11/01 01:24:23;;;;;;;7.28;2.13;;;;;11.30;99733.00;;;;10326756;28;20230;-73
2023/11/01 01:29:24;;;;;;;9.35;2.42;;;;;11.30;99738.00;;;;10320387;28;20302;-74
2023/11/01 01:34:26;;;;;;;5.15;1.83;;;;;11.40;99728.00;;;;10314140;28;20298;-72
2023/11/01 01:39:27;;;;;;;4.47;1.83;;;;;11.40;99733.00;;;;10317107;28;20310;-73
2023/11/01 01:44:28;;;;;;;3.78;1.63;;;;;11.50;99713.00;;;;10323744;28;20227;-73
2023/11/01 01:49:30;;;;;;;4.50;2.20;;;;;11.50;99708.00;;;;10314471;28;20234;-73
2023/11/01 01:54:40;;;;;;;9.60;2.58;;;;;11.60;99697.00;;;;10323763;28;20311;-73
2023/11/01 01:59:41;;;;;;;9.13;3.40;;;;;11.70;99693.00;;;;10319866;28;20302;-72
2023/11/01 02:04:43;;;;;;;13.15;3.35;;;;;11.70;99692.00;;;;10319002;28;20286;-72
2023/11/01 02:09:44;;;;;;;10.85;3.28;;;;;11.80;99690.00;;;;10316298;28;20274;-73
2023/11/01 02:14:46;;;;;;;10.88;4.18;;;;;11.80;99682.00;;;;10318683;28;20224;-73
2023/11/01 02:19:47;;;;;;;15.88;3.40;;;;;11.90;99668.00;;;;10318872;28;20251;-73
2023/11/01 02:24:48;;;;;;;8.98;3.53;;;;;11.90;99678.00;;;;10322424;28;20221;-73
2023/11/01 02:29:50;;;;;;;25.70;4.18;;;;;11.90;99672.00;;;;10331157;28;20693;-74
2023/11/01 02:34:51;;;;;;;17.88;3.30;;;;;12.00;99665.00;;;;10316835;28;20634;-74
2023/11/01 02:39:53;;;;;;;13.93;3.63;;;;;12.00;99667.00;;;;10330658;28;20215;-74
2023/11/01 02:44:54;;;;;;;15.73;3.13;;;;;12.00;99667.00;;;;10318891;28;20223;-74
2023/11/01 02:49:55;;;;;;;15.77;3.08;;;;;12.00;99667.00;;;;10313107;28;20220;-74
2023/11/01 02:54:56;;;;;;;15.77;3.30;;;;;12.00;99659.00;;;;10318388;28;20228;-74
2023/11/01 02:59:59;;;;;;;12.90;3.00;;;;;12.00;99654.00;;;;10317127;28;20231;-73
2023/11/01 03:05:00;;;;;;;16.45;3.25;;;;;12.00;99658.00;;;;10316287;28;20224;-73
2023/11/01 03:10:02;;;;;;;15.73;3.78;;;;;12.00;99660.00;;;;10324379;28;20223;-73
2023/11/01 03:15:04;;;;;;;12.23;3.17;;;;;12.00;99655.00;;;;10316968;28;20297;-75
2023/11/01 03:20:07;;;;;;;21.70;3.17;;;;;12.00;99654.00;;;;10334856;28;20235;-74
2023/11/01 03:25:09;;;;;;;16.90;3.08;;;;;12.00;99651.00;;;;10298182;28;20228;-74
2023/11/01 03:30:10;;;;;;;22.77;4.43;;;;;12.00;99653.00;;;;10333826;28;20861;-75
2023/11/01 03:35:11;;;;;;;14.23;3.10;;;;;12.00;99645.00;;;;10311728;28;20346;-76
2023/11/01 03:40:12;;;;;;;18.70;3.45;;;;;11.90;99654.00;;;;10322739;28;20219;-75
2023/11/01 03:45:14;;;;;;;29.73;4.20;;;;;11.90;99650.00;;;;10319532;28;20250;-75
2023/11/01 03:50:15;;;;;;;11.57;3.30;;;;;11.90;99644.00;;;;10320699;28;20949;-75
2023/11/01 03:55:16;;;;;;;14.30;4.07;;;;;11.80;99642.00;;;;10315590;28;20224;-74
2023/11/01 04:00:21;;;;;;;18.27;4.00;;;;;11.80;99647.00;;;;10297004;28;20262;-75
2023/11/01 04:05:22;;;;;;;15.93;3.75;;;;;11.70;99647.00;;;;10298737;28;20220;-74
2023/11/01 04:10:23;;;;;;;18.13;3.40;;;;;11.70;99649.00;;;;10317268;28;20262;-74
2023/11/01 04:15:24;;;;;;;13.18;3.65;;;;;11.60;99647.00;;;;10315814;28;20224;-74
2023/11/01 04:20:25;;;;;;;19.63;4.20;;;;;11.50;99632.00;;;;10321393;28;21042;-74
2023/11/01 04:25:28;;;;;;;18.85;3.70;;;;;11.40;99634.00;;;;10318385;28;20227;-73
2023/11/01 04:30:38;;;;;;;14.05;3.97;;;;;11.40;99633.00;;;;10332631;28;20231;-73
2023/11/01 04:35:39;;;;;;;17.60;4.20;;;;;11.40;99621.00;;;;10305751;28;20363;-73
2023/11/01 04:40:40;;;;;;;19.10;3.15;;;;;11.50;99623.00;;;;10318202;28;20866;-73
2023/11/01 04:45:41;;;;;;;15.13;3.17;;;;;11.50;99606.00;;;;10324902;28;20324;-73
2023/11/01 04:50:48;;;;;;;15.00;3.03;;;;;11.60;99602.00;;;;10298403;28;20227;-74
2023/11/01 04:55:50;;;;;;;11.85;3.22;;;;;11.60;99592.00;;;;10316471;28;20208;-73
2023/11/01 05:00:52;;;;;;;23.17;3.30;;;;;11.50;99591.00;;;;10325423;28;20231;-73
2023/11/01 05:05:53;;;;;;;15.95;3.13;;;;;11.60;99593.00;;;;10334886;28;20259;-73
2023/11/01 05:10:54;;;;;;;15.00;3.15;;;;;11.60;99584.00;;;;10310813;28;20271;-73
2023/11/01 05:15:55;;;;;;;13.80;3.72;;;;;11.60;99578.00;;;;10290850;28;20264;-73
2023/11/01 05:20:56;;;;;;;15.60;2.97;;;;;11.70;99571.00;;;;10310044;28;20223;-73
2023/11/01 05:25:57;;;;;;;12.25;4.00;;;;;11.60;99568.00;;;;10321972;28;20220;-72
2023/11/01 05:30:59;;;;;;;18.98;3.25;;;;;11.70;99573.00;;;;10320514;28;20271;-73
2023/11/01 05:36:06;;;;;;;22.77;3.70;;;;;11.70;99572.00;;;;10322986;28;20230;-73
2023/11/01 05:41:11;;;;;;;18.20;3.85;;;;;11.70;99553.00;;;;10323065;28;20786;-73
2023/11/01 05:46:12;;;;;;;18.35;3.75;;;;;11.70;99547.00;;;;10312075;28;20935;-73
2023/11/01 05:51:14;;;;;;;21.58;3.65;;;;;11.80;99551.00;;;;10319900;28;20255;-73
2023/11/01 05:56:15;;;;;;;19.13;4.00;;;;;11.80;99554.00;;;;10320895;28;20265;-73
2023/11/01 06:01:17;;;;;;;14.18;3.33;;;;;11.80;99561.00;;;;10312731;28;20226;-73
2023/11/01 06:06:18;;;;;;;14.70;3.63;;;;;11.70;99548.00;;;;10330389;28;20587;-73
2023/11/01 06:11:19;;;;;;;16.15;2.80;;;;;11.70;99547.00;;;;10314750;28;20987;-73
2023/11/01 06:16:20;;;;;;;12.88;2.92;;;;;11.70;99538.00;;;;10323981;28;20232;-73
2023/11/01 06:21:23;;;;;;;16.75;3.35;;;;;11.60;99537.00;;;;10313375;28;20227;-73
2023/11/01 06:26:24;;;;;;;10.68;3.00;;;;;11.50;99544.00;;;;10310465;28;20820;-73
2023/11/01 06:31:25;;;;;;;17.23;3.20;;;;;11.50;99546.00;;;;10313268;28;20270;-73
2023/11/01 06:36:26;;;;;;;12.52;2.90;;;;;11.50;99547.00;;;;10315874;28;20266;-73
2023/11/01 06:41:28;;;;;;;15.02;3.70;;;;;11.40;99549.00;;;;10318857;28;20227;-73
2023/11/01 06:46:29;;;;;;;12.45;2.88;;;;;11.40;99547.00;;;;10305744;28;20236;-70
2023/11/01 06:51:30;;;;;;;13.98;2.80;;;;;11.50;99548.00;;;;10308209;28;20234;-70
2023/11/01 06:56:31;;;;;;;14.20;2.90;;;;;11.50;99555.00;;;;10313379;28;20290;-69
2023/11/01 07:01:32;;;;;;;15.48;2.72;;;;;11.60;99548.00;;;;10311142;28;20318;-70
2023/11/01 07:06:33;;;;;;;14.25;3.28;;;;;11.80;99554.00;;;;10308056;28;20238;-71
2023/11/01 07:11:35;;;;;;;9.25;2.80;;;;;11.90;99553.00;;;;10313309;28;20277;-69
2023/11/01 07:16:41;;;;;;;9.57;3.15;;;;;11.90;99551.00;;;;10317495;28;20303;-70
2023/11/01 07:21:44;;;;;;;11.85;2.47;;;;;11.90;99556.00;;;;10301648;28;20228;-69
2023/11/01 07:26:45;;;;;;;14.77;2.65;;;;;11.90;99547.00;;;;10309934;28;20228;-69
2023/11/01 07:31:46;;;;;;;13.43;2.50;;;;;11.90;99531.00;;;;10302679;28;20666;-70
2023/11/01 07:36:48;;;;;;;16.48;2.42;;;;;11.90;99531.00;;;;10306778;28;20330;-71
2023/11/01 07:41:49;;;;;;;10.40;2.17;;;;;11.90;99526.00;;;;10307216;28;20225;-69
2023/11/01 07:46:50;;;;;;;25.48;3.03;;;;;11.90;99523.00;;;;10277071;28;20228;-70
2023/11/01 07:51:51;;;;;;;9.68;2.50;;;;;12.00;99511.00;;;;10297137;28;20252;-71
2023/11/01 07:56:52;;;;;;;13.10;2.90;;;;;12.20;99518.00;;;;10298137;28;20231;-72
2023/11/01 08:01:54;;;;;;;11.23;2.92;;;;;12.40;99502.00;;;;10290760;28;20224;-72
2023/11/01 08:06:56;;;;;;;7.10;2.25;;;;;12.60;99513.00;;;;10301255;28;20236;-72
2023/11/01 08:11:57;;;;;;;11.27;2.15;;;;;12.60;99500.00;;;;10301434;28;20232;-72
2023/11/01 08:16:59;;;;;;;11.43;2.65;;;;;12.70;99492.00;;;;10307415;28;20220;-72
2023/11/01 08:22:00;;;;;;;11.50;2.50;;;;;13.00;99486.00;;;;10291747;28;20222;-72
2023/11/01 08:27:02;;;;;;;24.50;2.83;;;;;13.20;99488.00;;;;10307529;28;20251;-71
2023/11/01 08:32:05;;;;;;;9.68;2.50;;;;;13.40;99486.00;;;;10272038;28;20227;-71
2023/11/01 08:37:06;;;;;;;7.28;2.15;;;;;13.50;99468.00;;;;10311212;28;20216;-70
2023/11/01 08:42:08;;;;;;;9.40;1.75;;;;;13.60;99472.00;;;;10307781;28;20220;-71
2023/11/01 08:47:29;;;;;;;10.80;2.42;;;;;13.60;99470.00;;;;10314323;28;20232;-71
2023/11/01 08:52:32;;;;;;;8.35;2.25;;;;;13.80;99465.00;;;;10299711;28;20255;-70
2023/11/01 08:57:33;;;;;;;8.43;2.15;;;;;14.10;99463.00;;;;10285773;28;20262;-71
2023/11/01 09:02:34;;;;;;;8.93;2.28;;;;;14.10;99463.00;;;;10298328;28;20242;-68
2023/11/01 09:07:36;;;;;;;9.32;1.95;;;;;14.30;99465.00;;;;10304559;28;20223;-68
2023/11/01 09:12:37;;;;;;;9.45;2.22;;;;;14.20;99445.00;;;;10312416;28;20662;-67
2023/11/01 09:17:39;;;;;;;9.35;1.75;;;;;14.20;99441.00;;;;10310193;28;20231;-68
2023/11/01 09:22:40;;;;;;;7.10;1.70;;;;;14.10;99431.00;;;;10308047;28;20232;-68
2023/11/01 09:27:41;;;;;;;9.00;2.03;;;;;14.20;99430.00;;;;10311650;28;20224;-68
2023/11/01 09:32:42;;;;;;;11.07;2.08;;;;;14.40;99434.00;;;;10309753;28;20315;-68
2023/11/01 09:37:44;;;;;;;8.27;1.65;;;;;14.70;99435.00;;;;10307288;28;20230;-68
2023/11/01 09:42:47;;;;;;;10.68;2.28;;;;;14.90;99433.00;;;;10306715;28;20229;-69
2023/11/01 09:47:50;;;;;;;8.00;1.80;;;;;15.20;99442.00;;;;10307804;28;20235;-68
2023/11/01 09:52:51;;;;;;;7.75;1.63;;;;;15.70;99437.00;;;;10304639;28;20224;-69
2023/11/01 09:57:52;;;;;;;7.18;1.90;;;;;16.10;99429.00;;;;10301640;28;20303;-70
2023/11/01 10:02:54;;;;;;;5.50;2.03;;;;;15.70;99422.00;;;;10301639;28;20311;-69
2023/11/01 10:07:56;;;;;;;9.70;1.55;;;;;15.40;99390.00;;;;10299214;28;20395;-68
2023/11/01 10:12:57;;;;;;;5.65;1.75;;;;;15.20;99389.00;;;;10296354;28;22002;-72
2023/11/01 10:17:58;;;;;;;6.80;1.92;;;;;15.20;99382.00;;;;10301498;28;20219;-72
2023/11/01 10:23:00;;;;;;;7.43;1.67;;;;;15.30;99375.00;;;;10294392;28;20782;-72
2023/11/01 10:28:01;;;;;;;8.18;1.55;;;;;15.60;99378.00;;;;10313092;28;20962;-71
2023/11/01 10:33:02;;;;;;;6.80;1.80;;;;;15.70;99365.00;;;;10309290;28;20230;-72
2023/11/01 10:38:04;;;;;;;12.23;1.98;;;;;15.80;99355.00;;;;10312946;28;20319;-73
2023/11/01 10:43:06;;;;;;;6.75;1.75;;;;;16.90;99354.00;;;;10314964;28;20338;-72
2023/11/01 10:48:08;;;;;;;3.75;1.58;;;;;16.90;99353.00;;;;10303683;28;20245;-72
2023/11/01 10:53:11;;;;;;;5.50;1.45;;;;;17.20;99341.00;;;;10312467;28;20226;-72
2023/11/01 10:58:14;;;;;;;8.15;1.67;;;;;17.20;99324.00;;;;10304341;28;20226;-72
2023/11/01 11:03:19;;;;;;;6.72;1.85;;;;;16.50;99314.00;;;;10301858;28;20841;-73
2023/11/01 11:08:21;;;;;;;4.72;1.40;;;;;16.00;99305.00;;;;10301204;28;20262;-73
2023/11/01 11:13:23;;;;;;;8.02;1.30;;;;;16.20;99294.00;;;;10310071;28;20371;-74
2023/11/01 11:18:28;;;;;;;3.67;1.10;;;;;16.20;99289.00;;;;10310166;28;20232;-74
2023/11/01 11:23:34;;;;;;;4.95;1.27;;;;;16.20;99277.00;;;;10305719;28;20762;-71
2023/11/01 11:28:35;;;;;;;4.75;1.38;;;;;16.30;99260.00;;;;10297413;28;20220;-71
2023/11/01 11:33:57;;;;;;;8.38;1.40;;;;;16.50;99260.00;;;;10298697;28;20307;-71
2023/11/01 11:39:05;;;;;;;3.60;1.30;;;;;16.80;99255.00;;;;10291391;28;20401;-71
2023/11/01 11:44:11;;;;;;;5.88;1.52;;;;;17.00;99240.00;;;;10298380;28;20971;-70
2023/11/01 11:49:24;;;;;;;5.82;1.30;;;;;17.10;99236.00;;;;10304067;28;20924;-71
2023/11/01 11:54:28;;;;;;;3.38;1.13;;;;;16.40;99232.00;;;;10304994;28;20274;-71
2023/11/01 11:59:29;;;;;;;6.63;1.45;;;;;16.30;99219.00;;;;10305183;28;20293;-70
2023/11/01 12:04:33;;;;;;;4.28;1.35;;;;;16.20;99213.00;;;;10298371;28;20235;-70
2023/11/01 12:09:37;;;;;;;6.47;1.40;;;;;15.90;99195.00;;;;10280264;28;20224;-70
2023/11/01 12:14:40;;;;;;;3.65;1.10;;;;;16.10;99200.00;;;;10309814;28;20224;-71
2023/11/01 12:19:46;;;;;;;5.10;1.40;;;;;16.30;99197.00;;;;10298811;28;20227;-71
2023/11/01 12:24:49;;;;;;;2.47;1.05;;;;;16.00;99194.00;;;;10301709;28;20294;-71
2023/11/01 12:29:55;;;;;;;7.88;1.30;;;;;15.90;99189.00;;;;10269691;28;20597;-71
2023/11/01 12:34:56;;;;;;;4.45;1.20;;;;;15.70;99175.00;;;;10283715;28;20247;-74
2023/11/01 12:40:03;;;;;;;6.03;1.48;;;;;15.40;99162.00;;;;10323826;28;20310;-74
2023/11/01 12:45:05;;;;;;;5.47;1.30;;;;;15.50;99160.00;;;;10307184;28;20807;-74
2023/11/01 12:50:07;;;;;;;4.72;1.42;;;;;15.20;99164.00;;;;10314763;28;20231;-74
2023/11/01 12:55:09;;;;;;;4.10;1.35;;;;;14.70;99171.00;;;;10324791;28;20265;-74
2023/11/01 13:00:12;;;;;;;4.47;1.33;;;;;14.10;99169.00;;;;10317041;28;20231;-72
2023/11/01 13:05:13;;;;;;;5.57;1.52;;;;;13.40;99168.00;;;;10324260;28;21164;-72
2023/11/01 13:10:15;;;;;;;5.15;1.38;;;;;13.10;99163.00;;;;10316839;28;20259;-72
2023/11/01 13:15:16;;;;;;;3.83;1.23;;;;;13.20;99150.00;;;;10338335;28;20275;-73
2023/11/01 13:20:18;;;;;;;5.68;1.40;;;;;13.40;99155.00;;;;10316539;28;20231;-72
2023/11/01 13:25:19;;;;;;;9.15;1.90;;;;;13.30;99154.00;;;;10326666;28;20634;-73
2023/11/01 13:30:20;;;;;;;5.43;1.13;;;;;13.30;99152.00;;;;10316979;28;20228;-72
2023/11/01 13:35:21;;;;;;;4.80;1.45;;;;;13.10;99149.00;;;;10299244;28;20685;-74
2023/11/01 13:40:23;;;;;;;6.20;1.13;;;;;13.00;99132.00;;;;10317510;28;20223;-74
2023/11/01 13:45:24;;;;;;;3.08;0.95;;;;;12.80;99122.00;;;;10301613;28;20216;-73
2023/11/01 13:50:25;;;;;;;3.45;1.00;;;;;12.80;99117.00;;;;10313050;28;20224;-71
2023/11/01 13:55:26;;;;;;;4.57;1.40;;;;;12.80;99106.00;;;;10303134;28;20223;-72
2023/11/01 14:00:37;;;;;;;4.25;1.30;;;;;12.90;99103.00;;;;10320579;28;20301;-72
2023/11/01 14:05:40;;;;;;;7.05;1.40;;;;;13.00;99108.00;;;;10323158;28;20224;-72
2023/11/01 14:10:44;;;;;;;4.28;1.25;;;;;13.00;99099.00;;;;10307901;28;20256;-71
2023/11/01 14:15:45;;;;;;;5.30;1.30;;;;;13.00;99102.00;;;;10309315;28;20335;-72
2023/11/01 14:20:50;;;;;;;4.57;1.33;;;;;12.90;99097.00;;;;10297341;28;20235;-72
2023/11/01 14:25:53;;;;;;;3.67;1.30;;;;;13.10;99096.00;;;;10302393;28;20227;-72
2023/11/01 14:30:55;;;;;;;5.95;1.20;;;;;13.20;99105.00;;;;10303772;28;20224;-71
2023/11/01 14:35:59;;;;;;;3.58;1.30;;;;;12.90;99095.00;;;;10304422;28;20234;-72
2023/11/01 14:41:01;;;;;;;3.22;1.30;;;;;13.00;99081.00;;;;10305038;28;20235;-73
2023/11/01 14:46:03;;;;;;;2.75;1.05;;;;;13.40;99091.00;;;;10289946;28;20228;-71
2023/11/01 14:51:04;;;;;;;3.33;1.33;;;;;13.00;99077.00;;;;10297922;28;20297;-72
2023/11/01 14:56:17;;;;;;;4.30;1.10;;;;;12.70;99084.00;;;;10302638;28;20216;-74
2023/11/01 15:01:18;;;;;;;4.43;0.77;;;;;12.50;99075.00;;;;10306412;28;20260;-74
2023/11/01 15:06:20;;;;;;;4.97;1.15;;;;;12.20;99067.00;;;;10296684;28;20242;-73
2023/11/01 15:11:21;;;;;;;3.83;1.38;;;;;12.00;99077.00;;;;10299083;28;20259;-74
2023/11/01 15:16:22;;;;;;;2.50;1.00;;;;;12.00;99080.00;;;;10255852;28;20282;-72
2023/11/01 15:21:23;;;;;;;6.15;1.83;;;;;12.20;99083.00;;;;10243027;28;20867;-73
2023/11/01 15:26:25;;;;;;;1.75;1.02;;;;;12.30;99089.00;;;;10243528;28;20601;-73
2023/11/01 15:31:27;;;;;;;7.63;1.70;;;;;12.40;99086.00;;;;10248277;28;20235;-73
2023/11/01 15:36:28;;;;;;;3.88;1.30;;;;;12.30;99088.00;;;;10264513;28;20234;-73
2023/11/01 15:41:29;;;;;;;3.60;1.20;;;;;12.10;99093.00;;;;10254633;28;20236;-72
2023/11/01 15:46:30;;;;;;;3.30;1.08;;;;;12.20;99085.00;;;;10255225;28;21101;-73
2023/11/01 15:51:31;;;;;;;3.60;1.20;;;;;12.20;99085.00;;;;10252792;28;20269;-72
2023/11/01 15:56:37;;;;;;;3.25;1.38;;;;;12.10;99083.00;;;;10258144;28;20228;-72
2023/11/01 16:01:38;;;;;;;4.07;1.10;;;;;11.80;99063.00;;;;10260384;28;20271;-73
2023/11/01 16:06:39;;;;;;;4.75;1.27;;;;;11.60;99051.00;;;;10265693;28;20238;-72
2023/11/01 16:11:40;;;;;;;4.13;1.10;;;;;11.40;99044.00;;;;10278127;28;20235;-72
2023/11/01 16:16:44;;;;;;;3.07;1.23;;;;;11.30;99054.00;;;;10276628;28;20255;-72
2023/11/01 16:21:45;;;;;;;4.82;1.38;;;;;11.10;99050.00;;;;10267626;28;21117;-72
2023/11/01 16:26:46;;;;;;;4.40;1.33;;;;;11.00;99054.00;;;;10266090;28;20239;-72
2023/11/01 16:31:48;;;;;;;6.00;1.47;;;;;11.00;99057.00;;;;10268273;28;20871;-72
2023/11/01 16:36:49;;;;;;;5.18;1.90;;;;;10.90;99053.00;;;;10262845;28;20229;-72
2023/11/01 16:41:50;;;;;;;6.23;1.50;;;;;10.90;99053.00;;;;10271120;28;20224;-72
2023/11/01 16:46:51;;;;;;;4.60;1.37;;;;;10.80;99064.00;;;;10265822;28;20228;-72
2023/11/01 16:51:52;;;;;;;4.77;1.50;;;;;10.80;99071.00;;;;10263796;28;20263;-72
2023/11/01 16:56:53;;;;;;;5.43;1.63;;;;;10.70;99067.00;;;;10279771;28;20233;-71
2023/11/01 17:01:54;;;;;;;5.07;1.80;;;;;10.70;99071.00;;;;10275233;28;20883;-72
2023/11/01 17:06:56;;;;;;;5.23;1.80;;;;;10.70;99077.00;;;;10263068;28;20454;-72
2023/11/01 17:11:58;;;;;;;5.90;1.70;;;;;10.80;99070.00;;;;10264629;28;20232;-72
2023/11/01 17:17:01;;;;;;;5.73;2.27;;;;;10.90;99065.00;;;;10258454;28;20285;-69
2023/11/01 17:22:05;;;;;;;6.00;1.77;;;;;11.00;99070.00;;;;10241179;28;20233;-72
2023/11/01 17:27:06;;;;;;;10.43;2.53;;;;;11.10;99074.00;;;;10256485;28;20933;-70
2023/11/01 17:32:07;;;;;;;6.20;1.60;;;;;11.10;99071.00;;;;10259948;28;20270;-69
2023/11/01 17:37:11;;;;;;;2.63;1.30;;;;;11.10;99086.00;;;;10258770;28;20224;-72
2023/11/01 17:42:12;;;;;;;4.90;1.70;;;;;11.10;99092.00;;;;10258689;28;20240;-71
2023/11/01 17:47:24;;;;;;;4.20;1.50;;;;;11.10;99084.00;;;;10257312;28;20244;-70
2023/11/01 17:52:31;;;;;;;5.97;1.47;;;;;11.20;99075.00;;;;10260157;28;20794;-72
2023/11/01 17:57:34;;;;;;;10.95;3.22;;;;;11.20;99076.00;;;;10258542;28;20253;-71
2023/11/01 18:03:04;;;;;;;7.83;1.97;;;;;11.10;99056.00;;;;10257521;28;20232;-72
2023/11/01 18:08:10;;;;;;;6.55;1.60;;;;;11.00;99044.00;;;;10266357;28;20270;-68
2023/11/01 18:13:24;;;;;;;6.78;1.60;;;;;10.90;99061.00;;;;10268099;28;20669;-69
2023/11/01 18:18:50;;;;;;;4.90;1.37;;;;;10.80;99064.00;;;;10269031;28;20242;-69
2023/11/01 18:23:52;;;;;;;6.43;1.80;;;;;10.60;99067.00;;;;10263222;28;20965;-73
2023/11/01 18:28:58;;;;;;;5.53;1.70;;;;;10.50;99068.00;;;;10260586;28;21243;-73
2023/11/01 18:34:01;;;;;;;2.63;1.50;;;;;10.30;99069.00;;;;10262185;28;20262;-72
2023/11/01 18:39:03;;;;;;;1.83;1.03;;;;;10.10;99083.00;;;;10274962;28;20238;-73
2023/11/01 18:44:24;;;;;;;3.67;1.10;;;;;10.00;99067.00;;;;10255624;28;21128;-72
2023/11/01 18:49:28;;;;;;;5.13;1.20;;;;;9.80;99067.00;;;;10252801;28;20301;-72
2023/11/01 18:54:46;;;;;;;2.40;1.50;;;;;9.70;99057.00;;;;10266745;28;20227;-73
2023/11/01 18:59:47;;;;;;;1.97;0.90;;;;;9.60;99037.00;;;;10308760;28;20251;-73
2023/11/01 19:04:48;;;;;;;4.90;1.50;;;;;9.60;99036.00;;;;10292947;28;20272;-73
2023/11/01 19:09:50;;;;;;;3.47;1.40;;;;;9.50;99033.00;;;;10322723;28;20230;-73
2023/11/01 19:14:51;;;;;;;2.77;1.70;;;;;9.50;99032.00;;;;10308054;28;20230;-73
2023/11/01 19:19:52;;;;;;;4.37;1.73;;;;;9.50;99036.00;;;;10307886;28;20301;-73
2023/11/01 19:24:53;;;;;;;3.23;1.43;;;;;9.60;99038.00;;;;10289202;28;20279;-73
2023/11/01 19:29:54;;;;;;;4.63;1.40;;;;;9.70;99043.00;;;;10309877;28;20219;-72
2023/11/01 19:34:56;;;;;;;3.63;1.43;;;;;9.70;99041.00;;;;10310409;28;20228;-72
2023/11/01 19:39:57;;;;;;;4.17;1.10;;;;;9.80;99034.00;;;;10318481;28;20299;-73
2023/11/01 19:44:59;;;;;;;3.93;1.27;;;;;9.90;99029.00;;;;10308056;28;20227;-73
2023/11/01 19:50:01;;;;;;;4.77;1.60;;;;;9.90;99027.00;;;;10310620;28;20311;-73
2023/11/01 19:55:02;;;;;;;4.57;1.33;;;;;10.00;99039.00;;;;10311125;28;20235;-72
2023/11/01 20:00:04;;;;;;;6.53;1.63;;;;;9.90;99032.00;;;;10314068;28;20220;-73
2023/11/01 20:05:10;;;;;;;8.90;1.60;;;;;9.90;99007.00;;;;10308154;28;20860;-73
2023/11/01 20:10:12;;;;;;;5.97;1.70;;;;;9.90;98969.00;;;;10315783;28;20235;-73
2023/11/01 20:15:15;;;;;;;4.70;1.50;;;;;9.80;98961.00;;;;10308265;28;20866;-72
2023/11/01 20:20:17;;;;;;;5.07;1.40;;;;;9.70;98953.00;;;;10309100;28;20770;-72
2023/11/01 20:25:18;;;;;;;6.53;1.30;;;;;9.60;98941.00;;;;10318468;28;20262;-72
2023/11/01 20:30:19;;;;;;;3.27;1.33;;;;;9.50;98926.00;;;;10326721;28;20235;-73
2023/11/01 20:35:20;;;;;;;1.83;1.00;;;;;9.50;98919.00;;;;10313257;28;20228;-72
2023/11/01 20:40:22;;;;;;;2.40;1.10;;;;;9.50;98912.00;;;;10332819;28;20227;-72
2023/11/01 20:45:25;;;;;;;4.53;1.53;;;;;9.50;98904.00;;;;10310417;28;20650;-75
2023/11/01 20:50:27;;;;;;;5.87;1.53;;;;;9.40;98894.00;;;;10323804;28;20220;-75
2023/11/01 20:55:28;;;;;;;4.03;1.50;;;;;9.40;98898.00;;;;10308511;28;20571;-75
2023/11/01 21:00:29;;;;;;;2.77;1.40;;;;;9.40;98901.00;;;;10298928;28;20679;-76
2023/11/01 21:05:33;;;;;;;4.53;1.57;;;;;9.40;98884.00;;;;10318677;28;20310;-73
2023/11/01 21:10:34;;;;;;;7.13;1.83;;;;;9.40;98874.00;;;;10319982;28;20807;-75
2023/11/01 21:15:36;;;;;;;5.73;1.57;;;;;9.40;98862.00;;;;10298184;28;20861;-76
2023/11/01 21:20:37;;;;;;;4.07;1.70;;;;;9.40;98828.00;;;;10321347;28;20223;-77
2023/11/01 21:25:38;;;;;;;5.03;1.63;;;;;9.40;98814.00;;;;10318996;28;20224;-74
2023/11/01 21:30:39;;;;;;;4.83;1.77;;;;;9.30;98792.00;;;;10315556;28;20253;-75
2023/11/01 21:35:40;;;;;;;5.47;1.60;;;;;9.30;98777.00;;;;10334563;28;20224;-75
2023/11/01 21:40:45;;;;;;;5.83;1.87;;;;;9.30;98770.00;;;;10319132;28;20764;-73
2023/11/01 21:45:49;;;;;;;8.23;2.37;;;;;9.30;98759.00;;;;10311584;28;20359;-74
2023/11/01 21:50:59;;;;;;;11.33;2.83;;;;;9.30;98750.00;;;;10308303;28;20636;-74
2023/11/01 21:56:01;;;;;;;7.73;2.20;;;;;9.30;98738.00;;;;10306080;28;20219;-71
2023/11/01 22:01:04;;;;;;;8.50;2.80;;;;;9.30;98708.00;;;;10303799;28;20220;-70
2023/11/01 22:06:17;;;;;;;5.73;2.83;;;;;9.30;98688.00;;;;10316060;28;20293;-71
2023/11/01 22:11:18;;;;;;;9.17;2.80;;;;;9.40;98664.00;;;;10303612;28;20633;-70
2023/11/01 22:16:28;;;;;;;10.93;3.00;;;;;9.40;98669.00;;;;10310220;28;22053;-71
2023/11/01 22:21:37;;;;;;;6.30;2.27;;;;;9.50;98653.00;;;;10298636;28;20231;-71
2023/11/01 22:26:39;;;;;;;6.60;2.37;;;;;9.50;98653.00;;;;10299885;28;20223;-70
2023/11/01 22:31:53;;;;;;;7.90;2.40;;;;;9.50;98652.00;;;;10307095;28;20235;-71
2023/11/01 22:36:54;;;;;;;6.90;1.97;;;;;9.60;98643.00;;;;10286491;28;20342;-71
2023/11/01 22:41:56;;;;;;;9.07;1.90;;;;;9.70;98609.00;;;;10278034;28;20239;-71
2023/11/01 22:46:57;;;;;;;8.37;1.93;;;;;9.70;98600.00;;;;10305310;28;20582;-70
2023/11/01 22:52:00;;;;;;;9.17;2.50;;;;;9.80;98593.00;;;;10319674;28;20240;-71
2023/11/01 22:57:01;;;;;;;7.20;2.13;;;;;9.80;98587.00;;;;10294660;28;20798;-71
2023/11/01 23:02:07;;;;;;;12.80;2.17;;;;;9.80;98557.00;;;;10324086;28;20933;-70
2023/11/01 23:07:09;;;;;;;5.20;1.63;;;;;9.90;98550.00;;;;10308094;28;20235;-70
2023/11/01 23:12:11;;;;;;;8.17;2.10;;;;;10.00;98539.00;;;;10312369;28;20211;-71
2023/11/01 23:17:12;;;;;;;5.30;1.73;;;;;10.00;98537.00;;;;10302686;28;20227;-70
2023/11/01 23:22:13;;;;;;;5.87;1.90;;;;;10.10;98510.00;;;;10304273;28;20258;-71
2023/11/01 23:27:14;;;;;;;7.90;2.40;;;;;10.20;98499.00;;;;10303195;28;20231;-71
2023/11/01 23:32:20;;;;;;;5.87;1.97;;;;;10.20;98493.00;;;;10305036;28;20304;-71
2023/11/01 23:37:37;;;;;;;14.17;1.80;;;;;10.20;98470.00;;;;10302724;28;21177;-70
2023/11/01 23:42:38;;;;;;;7.80;1.50;;;;;10.30;98453.00;;;;10301758;28;20319;-71
2023/11/01 23:48:03;;;;;;;7.90;1.50;;;;;10.30;98444.00;;;;10318948;28;20322;-70
2023/11/01 23:53:07;;;;;;;11.40;3.17;;;;;10.30;98428.00;;;;10303870;28;20235;-71
2023/11/01 23:58:08;;;;;;;7.73;1.60;;;;;10.40;98410.00;;;;10308815;28;20322;-70
